Time;durP1;ratioP1;P1;durP2;ratioP2;P2;SDS_P1;SDS_P2;PMS_P1;PMS_P2;Temp;Humidity;BMP_temperature;BMP_pressure;BME280_temperature;BME280_humidity;BME280_pressure;Samples;Min_cycle;Max_cycle;Signal;HPM_P1;HPM_P2
2022/10/07 00:01:57;;;;;;;3.20;2.90;;;5.50;99.90;5.20;101949.00;;;;4958919;28;87089;-59
2022/10/07 00:04:23;;;;;;;5.53;2.90;;;5.50;99.90;5.20;101956.00;;;;4947102;28;87925;-57
2022/10/07 00:06:49;;;;;;;4.43;2.63;;;5.80;99.90;5.20;101943.00;;;;4950035;28;114048;-59
2022/10/07 00:09:15;;;;;;;2.63;2.37;;;5.40;99.90;5.20;101944.00;;;;4950629;28;88701;-59
2022/10/07 00:11:41;;;;;;;3.70;2.57;;;5.40;99.90;5.20;101945.00;;;;4949123;28;110377;-59
2022/10/07 00:14:07;;;;;;;2.20;2.00;;;5.40;99.90;5.20;101958.00;;;;4947013;28;87838;-58
2022/10/07 00:16:37;;;;;;;2.10;1.90;;;5.40;99.90;5.10;101955.00;;;;4941961;28;88965;-59
2022/10/07 00:19:07;;;;;;;5.03;2.53;;;5.30;99.90;5.10;101948.00;;;;4941738;28;88645;-59
2022/10/07 00:21:35;;;;;;;5.23;2.20;;;5.30;99.90;5.10;101949.00;;;;4946228;28;87814;-58
2022/10/07 00:24:02;;;;;;;8.83;2.63;;;5.30;99.90;5.10;101950.00;;;;4949841;28;87850;-60
2022/10/07 00:26:31;;;;;;;3.70;2.80;;;5.30;99.90;5.00;101942.00;;;;4948296;28;88657;-59
2022/10/07 00:28:57;;;;;;;2.50;2.10;;;5.30;99.90;5.00;101939.00;;;;4952753;28;88102;-59
2022/10/07 00:31:30;;;;;;;2.63;2.00;;;5.20;99.90;5.00;101934.00;;;;4945687;28;87771;-59
2022/10/07 00:33:57;;;;;;;3.90;2.10;;;5.20;99.90;4.90;101936.00;;;;4945436;28;99487;-59
2022/10/07 00:36:35;;;;;;;2.70;2.33;;;5.10;99.90;4.90;101939.00;;;;4945106;28;88967;-59
2022/10/07 00:39:11;;;;;;;4.57;2.00;;;5.10;99.90;4.80;101934.00;;;;4943666;28;88340;-58
2022/10/07 00:41:49;;;;;;;2.13;1.93;;;5.10;99.90;4.80;101918.00;;;;4951051;28;87904;-60
2022/10/07 00:44:38;;;;;;;2.23;1.87;;;5.00;99.90;4.80;101923.00;;;;4948221;28;89180;-61
2022/10/07 00:47:18;;;;;;;4.17;2.77;;;5.00;99.90;4.70;101919.00;;;;4951223;28;88963;-59
2022/10/07 00:50:01;;;;;;;2.97;2.47;;;5.00;99.90;4.70;101924.00;;;;4965128;28;88383;-60
2022/10/07 00:52:30;;;;;;;4.07;1.90;;;5.00;99.90;4.70;101909.00;;;;4952138;28;87303;-59
2022/10/07 00:54:59;;;;;;;4.37;2.27;;;5.20;99.90;4.70;101919.00;;;;4943106;28;88158;-60
2022/10/07 00:57:27;;;;;;;5.43;2.93;;;5.20;99.90;4.70;101907.00;;;;4942387;28;106310;-59
2022/10/07 00:59:54;;;;;;;6.73;3.13;;;4.90;99.90;4.60;101901.00;;;;4941775;28;88867;-59
2022/10/07 01:02:22;;;;;;;4.43;2.40;;;4.80;99.90;4.60;101904.00;;;;4945860;28;87801;-60
2022/10/07 01:04:50;;;;;;;4.53;2.77;;;5.20;99.90;4.60;101898.00;;;;4947022;28;95945;-58
2022/10/07 01:07:19;;;;;;;5.37;3.53;;;4.80;99.90;4.60;101899.00;;;;4950375;28;104429;-59
2022/10/07 01:09:49;;;;;;;5.70;3.37;;;4.80;99.90;4.60;101902.00;;;;4950793;28;87921;-59
2022/10/07 01:12:30;;;;;;;2.87;2.47;;;4.80;99.90;4.60;101893.00;;;;4943770;28;88073;-59
2022/10/07 01:15:31;;;;;;;3.23;2.53;;;4.80;99.90;4.50;101882.00;;;;4950843;28;95031;-58
2022/10/07 01:18:45;;;;;;;4.00;2.83;;;4.80;99.90;4.50;101881.00;;;;4945099;28;87123;-59
2022/10/07 01:22:02;;;;;;;2.80;2.13;;;4.70;99.90;4.40;101877.00;;;;4959407;28;87938;-59
2022/10/07 01:25:06;;;;;;;3.50;2.07;;;4.70;99.90;4.40;101876.00;;;;4946730;28;87754;-58
2022/10/07 01:27:33;;;;;;;4.03;2.47;;;4.70;99.90;4.40;101874.00;;;;4950057;28;88620;-59
2022/10/07 01:30:05;;;;;;;4.60;3.57;;;4.60;99.90;4.40;101864.00;;;;4949162;28;108135;-60
2022/10/07 01:32:41;;;;;;;3.23;2.47;;;4.60;99.90;4.30;101874.00;;;;4947537;28;88135;-60
2022/10/07 01:35:13;;;;;;;6.37;2.87;;;4.60;99.90;4.30;101879.00;;;;4943417;28;87625;-59
2022/10/07 01:37:47;;;;;;;5.27;2.20;;;4.50;99.90;4.30;101857.00;;;;4950042;28;103268;-59
2022/10/07 01:40:19;;;;;;;5.57;2.50;;;4.50;99.90;4.30;101864.00;;;;4947147;28;89054;-57
2022/10/07 01:42:45;;;;;;;3.40;2.30;;;4.50;99.90;4.30;101864.00;;;;4961474;28;111407;-59
2022/10/07 01:45:19;;;;;;;2.57;2.17;;;4.50;99.90;4.20;101855.00;;;;4936935;28;103591;-59
2022/10/07 01:47:49;;;;;;;3.60;2.10;;;4.50;99.90;4.20;101850.00;;;;4942589;28;87771;-59
2022/10/07 01:50:17;;;;;;;4.87;2.60;;;4.40;99.90;4.20;101856.00;;;;4947993;28;95119;-58
2022/10/07 01:53:15;;;;;;;2.03;1.67;;;4.40;99.90;4.10;101847.00;;;;4938381;28;108585;-58
2022/10/07 01:56:36;;;;;;;3.53;2.17;;;4.40;99.90;4.00;101849.00;;;;4938395;28;87809;-60
2022/10/07 01:59:16;;;;;;;2.67;2.13;;;4.40;99.90;4.00;101838.00;;;;4926097;28;102066;-59
2022/10/07 02:02:12;;;;;;;2.33;2.13;;;4.30;99.90;4.00;101836.00;;;;4949141;28;88328;-56
2022/10/07 02:05:08;;;;;;;2.20;1.70;;;4.30;99.90;4.00;101825.00;;;;4946952;28;107431;-58
2022/10/07 02:08:18;;;;;;;6.50;2.20;;;4.30;99.90;3.90;101823.00;;;;4946750;28;88026;-58
2022/10/07 02:11:15;;;;;;;1.70;1.60;;;4.20;99.90;3.90;101818.00;;;;4950045;28;87977;-59
2022/10/07 02:13:49;;;;;;;2.87;1.90;;;4.20;99.90;3.90;101823.00;;;;4959729;28;88240;-57
2022/10/07 02:16:16;;;;;;;2.30;1.73;;;4.20;99.90;3.90;101823.00;;;;4947989;28;87955;-59
2022/10/07 02:18:47;;;;;;;1.63;1.53;;;4.10;99.90;3.90;101823.00;;;;4947854;28;88001;-59
2022/10/07 02:21:17;;;;;;;2.03;1.73;;;4.10;99.90;3.90;101819.00;;;;4945536;28;89038;-60
2022/10/07 02:23:46;;;;;;;3.00;1.53;;;4.10;99.90;3.80;101818.00;;;;4950795;28;87680;-59
2022/10/07 02:26:16;;;;;;;2.40;2.10;;;4.10;99.90;3.80;101810.00;;;;4962625;28;116250;-59
2022/10/07 02:28:44;;;;;;;2.33;2.03;;;4.10;99.90;3.80;101806.00;;;;4952349;28;104158;-56
2022/10/07 02:31:14;;;;;;;2.30;2.10;;;4.00;99.90;3.80;101806.00;;;;4946240;28;107453;-60
2022/10/07 02:33:41;;;;;;;2.97;1.77;;;4.00;99.90;3.80;101807.00;;;;4952795;28;88210;-59
2022/10/07 02:36:21;;;;;;;2.53;2.33;;;4.10;99.90;3.70;101811.00;;;;4953245;28;87849;-60
2022/10/07 02:38:47;;;;;;;3.83;2.00;;;4.00;99.90;3.80;101811.00;;;;4949546;28;87161;-59
2022/10/07 02:41:31;;;;;;;1.67;1.57;;;4.00;99.90;3.70;101802.00;;;;4951957;28;88639;-59
2022/10/07 02:44:20;;;;;;;2.33;2.13;;;4.00;99.90;3.70;101797.00;;;;4952658;28;88438;-59
2022/10/07 02:46:58;;;;;;;5.63;2.57;;;4.00;99.90;3.70;101804.00;;;;4961627;28;88400;-57
2022/10/07 02:49:25;;;;;;;3.57;2.13;;;3.90;99.90;3.70;101793.00;;;;4961379;28;88212;-60
2022/10/07 02:52:06;;;;;;;2.03;1.67;;;3.90;99.90;3.70;101790.00;;;;4949705;28;106012;-60
2022/10/07 02:54:40;;;;;;;1.50;1.40;;;3.90;99.90;3.60;101783.00;;;;4975552;28;88486;-58
2022/10/07 02:57:08;;;;;;;1.47;1.37;;;3.90;99.90;3.60;101781.00;;;;4953172;28;89084;-60
2022/10/07 02:59:34;;;;;;;2.17;1.97;;;3.90;99.90;3.60;101784.00;;;;4949286;28;102127;-60
2022/10/07 03:02:03;;;;;;;4.13;1.97;;;3.90;99.90;3.60;101779.00;;;;4953393;28;100528;-60
2022/10/07 03:04:29;;;;;;;5.07;2.20;;;3.90;99.90;3.60;101782.00;;;;4953744;28;88213;-60
2022/10/07 03:06:57;;;;;;;3.10;2.80;;;4.30;99.90;3.60;101771.00;;;;4951388;28;116836;-60
2022/10/07 03:09:24;;;;;;;4.27;1.87;;;3.80;99.90;3.60;101784.00;;;;4953020;28;87859;-60
2022/10/07 03:11:49;;;;;;;3.17;2.37;;;3.90;99.90;3.60;101784.00;;;;4946309;28;88780;-60
2022/10/07 03:14:15;;;;;;;2.00;1.57;;;4.40;99.90;3.50;101778.00;;;;4946745;28;117798;-60
2022/10/07 03:16:41;;;;;;;4.00;1.67;;;4.30;99.90;3.50;101769.00;;;;4948140;28;117064;-60
2022/10/07 03:19:06;;;;;;;4.03;1.73;;;3.80;99.90;3.50;101771.00;;;;4948694;28;110681;-59
2022/10/07 03:21:32;;;;;;;3.10;1.30;;;3.70;99.90;3.50;101759.00;;;;4949123;28;109316;-60
2022/10/07 03:24:03;;;;;;;2.27;1.67;;;3.70;99.90;3.50;101767.00;;;;4950622;28;88953;-59
2022/10/07 03:26:31;;;;;;;2.03;1.83;;;3.70;99.90;3.50;101774.00;;;;4953805;28;88100;-59
2022/10/07 03:28:58;;;;;;;2.63;1.90;;;3.70;99.90;3.40;101766.00;;;;4951464;28;87023;-59
2022/10/07 03:31:26;;;;;;;2.27;1.50;;;3.60;99.90;3.40;101773.00;;;;4945385;28;87679;-59
2022/10/07 03:33:55;;;;;;;2.00;1.80;;;3.70;99.90;3.40;101768.00;;;;4945662;28;87984;-60
2022/10/07 03:36:22;;;;;;;1.40;1.30;;;3.70;99.90;3.40;101766.00;;;;4952207;28;88717;-60
2022/10/07 03:38:49;;;;;;;1.10;1.00;;;4.10;99.90;3.30;101764.00;;;;4949668;28;87772;-58
2022/10/07 03:41:17;;;;;;;2.43;1.20;;;3.60;99.90;3.30;101763.00;;;;4955488;28;88007;-60
2022/10/07 03:43:43;;;;;;;3.03;1.73;;;3.50;99.90;3.20;101753.00;;;;4951456;28;88010;-60
2022/10/07 03:46:09;;;;;;;0.73;0.73;;;3.50;99.90;3.20;101748.00;;;;4951064;28;87656;-60
2022/10/07 03:48:35;;;;;;;1.80;1.33;;;3.50;99.90;3.20;101757.00;;;;4943877;28;110672;-59
2022/10/07 03:51:00;;;;;;;4.80;2.10;;;3.50;99.90;3.20;101758.00;;;;4945414;28;109702;-60
2022/10/07 03:53:28;;;;;;;1.23;1.13;;;3.40;99.90;3.10;101749.00;;;;4945447;28;101476;-60
2022/10/07 03:55:54;;;;;;;2.60;0.80;;;3.40;99.90;3.10;101741.00;;;;4946069;28;88065;-59
2022/10/07 03:58:20;;;;;;;2.40;1.30;;;3.40;99.90;3.10;101739.00;;;;4949457;28;103360;-60
2022/10/07 04:00:46;;;;;;;2.03;1.23;;;3.30;99.90;3.10;101745.00;;;;4952969;28;95142;-60
2022/10/07 04:03:14;;;;;;;2.10;1.57;;;3.30;99.90;3.00;101736.00;;;;4954082;28;88639;-58
2022/10/07 04:05:39;;;;;;;1.30;1.20;;;3.30;99.90;3.10;101743.00;;;;4952390;28;88484;-60
2022/10/07 04:08:05;;;;;;;1.13;1.03;;;3.30;99.90;3.00;101745.00;;;;4947218;28;108732;-59
2022/10/07 04:10:32;;;;;;;1.40;1.30;;;3.30;99.90;3.00;101734.00;;;;4945607;28;99483;-59
2022/10/07 04:12:58;;;;;;;1.47;1.20;;;3.30;99.90;3.00;101726.00;;;;4946716;28;89026;-59
2022/10/07 04:15:24;;;;;;;1.37;1.27;;;3.30;99.90;3.00;101733.00;;;;4951212;28;88854;-59
2022/10/07 04:17:57;;;;;;;1.30;1.20;;;3.20;99.90;3.00;101722.00;;;;4948804;28;87147;-60
2022/10/07 04:20:23;;;;;;;1.47;1.37;;;3.20;99.90;3.00;101718.00;;;;4951269;28;87959;-59
2022/10/07 04:22:49;;;;;;;2.97;1.33;;;3.20;99.90;3.00;101715.00;;;;4954159;28;87898;-59
2022/10/07 04:25:33;;;;;;;1.93;1.40;;;3.20;99.90;3.00;101720.00;;;;4950266;28;116006;-60
2022/10/07 04:28:05;;;;;;;1.73;1.20;;;3.20;99.90;3.00;101722.00;;;;4948834;28;87682;-60
2022/10/07 04:30:37;;;;;;;2.87;1.73;;;3.30;99.90;2.90;101714.00;;;;4948746;28;87891;-60
2022/10/07 04:33:03;;;;;;;1.53;1.07;;;3.60;99.90;2.90;101711.00;;;;4945326;28;88671;-59
2022/10/07 04:35:29;;;;;;;2.50;1.70;;;3.20;99.90;3.00;101714.00;;;;4947797;28;117456;-60
2022/10/07 04:37:55;;;;;;;1.20;1.10;;;3.20;99.90;3.00;101706.00;;;;4950129;28;110053;-60
2022/10/07 04:40:22;;;;;;;2.20;0.97;;;3.20;99.90;3.00;101719.00;;;;4953665;28;105088;-58
2022/10/07 04:45:34;;;;;;;1.73;1.60;;;3.30;99.90;3.00;101710.00;;;;4947546;28;87744;-60
2022/10/07 04:48:04;;;;;;;4.63;2.23;;;3.20;99.90;3.00;101701.00;;;;4946483;28;91845;-58
2022/10/07 04:50:32;;;;;;;2.03;1.83;;;3.20;99.90;3.00;101702.00;;;;4946465;28;88807;-57
2022/10/07 04:52:58;;;;;;;5.47;1.73;;;3.20;99.90;3.00;101701.00;;;;4945778;28;88454;-60
2022/10/07 04:55:25;;;;;;;2.07;1.70;;;3.30;99.90;3.00;101697.00;;;;4947759;28;118287;-59
2022/10/07 04:57:51;;;;;;;3.20;2.00;;;3.20;99.90;3.00;101699.00;;;;4952226;28;87811;-60
2022/10/07 05:00:17;;;;;;;3.10;1.60;;;3.20;99.90;3.00;101690.00;;;;4951254;28;108975;-60
2022/10/07 05:02:45;;;;;;;2.20;1.57;;;3.30;99.90;3.00;101686.00;;;;4952689;28;88070;-60
2022/10/07 05:05:10;;;;;;;3.03;1.60;;;3.20;99.90;3.00;101699.00;;;;4949343;28;88472;-60
2022/10/07 05:07:36;;;;;;;1.90;1.40;;;3.90;99.90;3.00;101684.00;;;;4947404;28;110862;-60
2022/10/07 05:10:02;;;;;;;1.60;1.27;;;3.20;99.90;3.00;101694.00;;;;4946099;28;108573;-60
2022/10/07 05:12:28;;;;;;;1.47;1.37;;;3.20;99.90;3.00;101675.00;;;;4941420;28;108427;-60
2022/10/07 05:14:53;;;;;;;1.60;1.33;;;3.20;99.90;3.00;101680.00;;;;4946130;28;117469;-60
2022/10/07 05:17:20;;;;;;;6.50;4.00;;;3.20;99.90;3.00;101687.00;;;;4950053;28;108381;-59
2022/10/07 05:19:46;;;;;;;12.60;7.43;;;3.30;99.90;3.00;101682.00;;;;4953197;28;87725;-61
2022/10/07 05:22:12;;;;;;;4.77;2.47;;;3.40;99.90;3.00;101686.00;;;;4952695;28;88288;-60
2022/10/07 05:24:38;;;;;;;4.90;1.43;;;3.30;99.90;3.00;101676.00;;;;4946187;28;115929;-60
2022/10/07 05:27:04;;;;;;;1.30;1.00;;;3.30;99.90;3.00;101672.00;;;;4946906;28;87758;-61
2022/10/07 05:29:29;;;;;;;2.77;1.97;;;3.20;99.90;3.00;101666.00;;;;4944868;28;109532;-59
2022/10/07 05:31:55;;;;;;;3.10;1.80;;;3.30;99.90;3.00;101658.00;;;;4939609;28;115403;-60
2022/10/07 05:34:20;;;;;;;3.77;1.90;;;3.20;99.90;3.00;101663.00;;;;4945725;28;103446;-59
2022/10/07 05:36:46;;;;;;;1.17;1.07;;;3.30;99.90;3.00;101662.00;;;;4951219;28;109661;-60
2022/10/07 05:39:12;;;;;;;4.00;1.67;;;3.30;99.90;3.00;101659.00;;;;4953974;28;88525;-59
2022/10/07 05:41:40;;;;;;;2.57;2.17;;;3.30;99.90;3.10;101660.00;;;;4948591;28;117469;-59
2022/10/07 05:44:06;;;;;;;2.43;2.17;;;3.30;99.90;3.10;101656.00;;;;4948414;28;89055;-60
2022/10/07 05:46:32;;;;;;;3.23;2.07;;;3.30;99.90;3.20;101652.00;;;;4946222;28;110216;-59
2022/10/07 05:48:58;;;;;;;3.20;2.60;;;3.40;99.90;3.30;101647.00;;;;4944956;28;87964;-60
2022/10/07 05:51:25;;;;;;;3.20;1.80;;;3.40;99.90;3.50;101647.00;;;;4949744;28;88667;-59
2022/10/07 05:53:55;;;;;;;4.47;2.00;;;3.60;99.90;3.70;101647.00;;;;4947383;28;88729;-59
2022/10/07 05:56:21;;;;;;;10.03;2.43;;;3.80;99.90;3.80;101651.00;;;;4949010;28;87086;-60
2022/10/07 05:58:48;;;;;;;3.43;2.30;;;3.90;99.90;4.00;101647.00;;;;4951340;28;87944;-60
2022/10/07 06:01:20;;;;;;;3.23;2.30;;;4.10;99.90;4.10;101647.00;;;;4947720;28;89082;-59
2022/10/07 06:03:56;;;;;;;3.53;2.27;;;4.30;99.90;4.30;101652.00;;;;4948730;28;88734;-59
2022/10/07 06:06:22;;;;;;;4.17;2.53;;;4.50;99.90;4.50;101650.00;;;;4949015;28;88056;-60
2022/10/07 06:08:49;;;;;;;1.70;1.60;;;4.60;99.90;4.70;101655.00;;;;4950108;28;88374;-60
2022/10/07 06:14:01;;;;;;;4.37;1.40;;;5.00;99.90;5.20;101663.00;;;;4953773;28;87663;-60
2022/10/07 06:16:27;;;;;;;3.07;1.70;;;5.40;99.90;5.50;101651.00;;;;4955985;28;87616;-59
2022/10/07 06:18:54;;;;;;;2.27;2.07;;;5.50;99.90;5.80;101656.00;;;;4953399;28;87550;-60
2022/10/07 06:21:25;;;;;;;2.80;2.07;;;5.80;99.90;6.10;101656.00;;;;4953852;28;88755;-60
2022/10/07 06:23:52;;;;;;;2.00;1.67;;;6.10;99.90;6.30;101657.00;;;;4952020;28;87878;-60
2022/10/07 06:26:18;;;;;;;3.83;1.70;;;6.90;99.90;6.70;101662.00;;;;4953108;28;87776;-60
2022/10/07 06:28:44;;;;;;;3.17;1.80;;;6.40;99.90;6.90;101650.00;;;;4950522;28;88933;-60
2022/10/07 06:31:12;;;;;;;1.63;0.93;;;7.00;99.90;7.20;101660.00;;;;4946415;28;106538;-60
2022/10/07 06:33:38;;;;;;;3.80;1.90;;;7.30;99.90;7.50;101659.00;;;;4946960;28;88095;-60
2022/10/07 06:36:11;;;;;;;1.23;1.07;;;7.50;99.90;7.90;101662.00;;;;4954171;28;109856;-60
2022/10/07 06:38:37;;;;;;;1.50;1.40;;;7.90;99.90;8.10;101652.00;;;;4954732;28;87599;-60
2022/10/07 06:41:04;;;;;;;3.40;1.57;;;8.20;99.90;8.50;101658.00;;;;4952239;28;89191;-60
2022/10/07 06:43:32;;;;;;;1.73;1.53;;;8.50;99.90;8.80;101656.00;;;;4950696;28;89088;-59
2022/10/07 06:46:01;;;;;;;3.37;2.07;;;8.80;99.90;9.10;101645.00;;;;4948805;28;87282;-60
2022/10/07 06:48:28;;;;;;;1.57;1.00;;;9.10;99.90;9.40;101662.00;;;;4952307;28;87701;-61
2022/10/07 06:50:57;;;;;;;1.93;1.40;;;9.40;99.90;9.70;101658.00;;;;4950361;28;106134;-60
2022/10/07 06:53:24;;;;;;;2.30;1.57;;;9.60;99.90;10.00;101661.00;;;;4959385;28;88706;-60
2022/10/07 06:55:52;;;;;;;1.77;1.60;;;10.00;99.90;10.30;101658.00;;;;4954804;28;87780;-59
2022/10/07 06:58:17;;;;;;;3.20;1.80;;;10.30;99.90;10.70;101657.00;;;;4957644;28;88117;-60
2022/10/07 07:00:48;;;;;;;2.27;1.47;;;10.60;99.90;11.00;101661.00;;;;4950570;28;117654;-60
2022/10/07 07:03:15;;;;;;;3.60;1.83;;;11.00;99.90;11.40;101656.00;;;;4951688;28;88602;-60
2022/10/07 07:05:41;;;;;;;1.97;1.77;;;11.30;99.90;11.70;101652.00;;;;4950108;28;102645;-60
2022/10/07 07:08:08;;;;;;;1.40;1.20;;;11.60;99.90;12.10;101654.00;;;;4943758;28;94057;-59
2022/10/07 07:10:39;;;;;;;1.90;1.40;;;12.00;99.90;12.40;101656.00;;;;4950385;28;87530;-60
2022/10/07 07:13:06;;;;;;;2.83;1.33;;;12.30;99.90;12.80;101650.00;;;;4953347;28;88054;-60
2022/10/07 07:15:33;;;;;;;1.20;1.10;;;12.60;99.90;13.10;101656.00;;;;4952747;28;88340;-60
2022/10/07 07:17:59;;;;;;;5.17;1.47;;;13.00;99.90;13.40;101648.00;;;;4952059;28;89203;-60
2022/10/07 07:20:25;;;;;;;1.27;1.17;;;13.30;99.90;13.70;101649.00;;;;4955217;28;89649;-61
2022/10/07 07:22:51;;;;;;;3.17;1.47;;;13.60;99.90;14.00;101650.00;;;;4948869;28;88840;-60
2022/10/07 07:25:18;;;;;;;2.20;1.10;;;13.90;99.90;14.40;101647.00;;;;4951287;28;88287;-57
2022/10/07 07:27:46;;;;;;;2.93;1.80;;;14.20;99.90;14.70;101649.00;;;;4949497;28;87615;-59
2022/10/07 07:30:13;;;;;;;8.10;1.60;;;14.50;99.90;15.00;101646.00;;;;4942969;28;88801;-59
2022/10/07 07:32:39;;;;;;;4.10;1.53;;;14.80;99.90;15.40;101644.00;;;;4947525;28;89270;-59
2022/10/07 07:35:06;;;;;;;3.10;1.30;;;15.20;99.90;15.70;101653.00;;;;4956151;28;87418;-59
2022/10/07 07:37:32;;;;;;;3.17;1.33;;;15.50;99.90;16.00;101642.00;;;;4950674;28;102344;-60
2022/10/07 07:39:58;;;;;;;2.38;1.40;;;15.80;99.90;16.30;101648.00;;;;4952517;28;88944;-59
2022/10/07 07:42:27;;;;;;;2.50;1.02;;;16.20;99.90;16.50;101641.00;;;;4948574;28;116713;-60
2022/10/07 07:44:54;;;;;;;2.92;1.40;;;16.40;99.90;16.70;101638.00;;;;4947538;28;88019;-60
2022/10/07 07:47:20;;;;;;;2.20;1.27;;;16.60;99.90;17.00;101652.00;;;;4950774;28;87990;-58
2022/10/07 07:49:48;;;;;;;4.00;1.55;;;16.80;99.90;17.30;101643.00;;;;4944876;28;88242;-60
2022/10/07 07:52:14;;;;;;;2.35;1.50;;;17.10;99.90;17.50;101649.00;;;;4940321;28;88462;-58
2022/10/07 07:54:40;;;;;;;2.00;1.80;;;17.30;99.90;17.80;101651.00;;;;4953962;28;94065;-60
2022/10/07 07:57:07;;;;;;;1.75;1.20;;;17.60;99.90;18.00;101650.00;;;;4956559;28;87576;-59
2022/10/07 07:59:33;;;;;;;1.05;0.85;;;17.80;99.90;18.30;101647.00;;;;4949411;28;101609;-58
2022/10/07 08:01:59;;;;;;;2.13;1.17;;;18.10;99.60;18.50;101651.00;;;;4951731;28;87797;-60
2022/10/07 08:04:26;;;;;;;0.95;0.75;;;18.30;98.90;18.70;101643.00;;;;4949174;28;87815;-61
2022/10/07 08:06:52;;;;;;;2.78;1.02;;;18.50;98.40;18.90;101643.00;;;;4944890;28;88637;-60
2022/10/07 08:09:18;;;;;;;1.23;0.95;;;18.70;97.60;19.10;101642.00;;;;4952561;28;88951;-60
2022/10/07 08:11:44;;;;;;;3.33;1.08;;;18.90;97.00;19.30;101635.00;;;;4944529;28;116837;-60
2022/10/07 08:14:14;;;;;;;3.63;1.00;;;19.10;96.60;19.50;101631.00;;;;4944285;28;88121;-60
2022/10/07 08:16:44;;;;;;;0.73;0.73;;;19.30;95.70;19.60;101634.00;;;;4955631;28;87539;-60
2022/10/07 08:19:11;;;;;;;1.50;0.90;;;19.50;95.00;19.70;101626.00;;;;4951860;28;87876;-61
2022/10/07 08:21:37;;;;;;;1.02;0.88;;;19.60;94.10;19.80;101624.00;;;;4950271;28;88734;-59
2022/10/07 08:24:07;;;;;;;5.50;1.70;;;19.70;93.00;19.80;101630.00;;;;4943720;28;111770;-61
2022/10/07 08:26:33;;;;;;;0.88;0.85;;;19.70;92.80;19.80;101627.00;;;;4950899;28;87972;-60
2022/10/07 08:29:00;;;;;;;1.27;0.60;;;19.70;91.90;19.90;101626.00;;;;4941912;28;117757;-61
2022/10/07 08:31:27;;;;;;;1.45;1.25;;;19.80;90.80;19.90;101617.00;;;;4948707;28;88713;-60
2022/10/07 08:33:56;;;;;;;4.35;0.98;;;19.80;90.60;19.80;101615.00;;;;4950117;28;87897;-60
2022/10/07 08:36:25;;;;;;;1.08;1.00;;;19.80;90.20;19.80;101614.00;;;;4943554;28;87915;-60
2022/10/07 08:38:51;;;;;;;1.98;0.70;;;19.80;88.60;19.80;101619.00;;;;4943489;28;88726;-60
2022/10/07 08:41:32;;;;;;;0.88;0.85;;;19.70;87.50;19.80;101624.00;;;;4950461;28;89981;-59
2022/10/07 08:44:12;;;;;;;0.63;0.63;;;19.80;84.50;19.60;101621.00;;;;4948674;28;87866;-60
2022/10/07 08:46:51;;;;;;;1.05;0.90;;;19.70;83.30;19.50;101614.00;;;;4948679;28;88181;-60
2022/10/07 08:49:26;;;;;;;0.47;0.40;;;19.60;83.70;19.50;101615.00;;;;4947134;28;87387;-60
2022/10/07 08:52:14;;;;;;;0.65;0.55;;;19.50;82.60;19.60;101606.00;;;;4960451;28;88185;-60
2022/10/07 08:54:40;;;;;;;0.73;0.73;;;19.50;83.30;19.80;101615.00;;;;4963567;28;98769;-61
2022/10/07 08:57:14;;;;;;;0.85;0.75;;;19.60;82.60;19.90;101607.00;;;;4943847;28;107786;-59
2022/10/07 08:59:49;;;;;;;1.40;0.85;;;19.70;80.20;19.90;101601.00;;;;4943176;28;89176;-61
2022/10/07 09:02:57;;;;;;;1.35;0.60;;;19.80;80.30;19.90;101607.00;;;;4947363;28;107576;-60
2022/10/07 09:05:32;;;;;;;3.35;0.88;;;19.80;79.70;20.00;101599.00;;;;4946644;28;88031;-60
2022/10/07 09:08:05;;;;;;;0.90;0.70;;;19.90;79.10;20.20;101596.00;;;;4949543;28;88235;-59
2022/10/07 09:10:49;;;;;;;1.75;0.90;;;19.90;79.70;20.30;101596.00;;;;4942073;28;88956;-60
2022/10/07 09:13:23;;;;;;;0.68;0.68;;;20.10;79.30;20.60;101588.00;;;;4957929;28;87752;-60
2022/10/07 09:16:10;;;;;;;1.20;0.95;;;20.40;79.70;20.90;101590.00;;;;4951723;28;100526;-60
2022/10/07 09:18:46;;;;;;;0.73;0.70;;;20.60;78.30;21.10;101590.00;;;;4949994;28;87678;-60
2022/10/07 09:21:21;;;;;;;1.35;0.75;;;20.80;77.70;21.30;101584.00;;;;4947727;28;88431;-59
2022/10/07 09:23:52;;;;;;;1.38;0.68;;;21.00;77.10;21.60;101578.00;;;;4944559;28;89246;-60
2022/10/07 09:26:17;;;;;;;1.70;0.90;;;21.30;75.80;21.70;101580.00;;;;4960237;28;102620;-60
2022/10/07 09:28:43;;;;;;;0.65;0.65;;;21.40;73.50;21.80;101583.00;;;;4947783;28;87854;-60
2022/10/07 09:31:13;;;;;;;0.60;0.60;;;21.50;74.10;22.20;101578.00;;;;4940015;28;116309;-59
2022/10/07 09:33:44;;;;;;;1.45;0.90;;;21.80;73.60;22.50;101571.00;;;;4939775;28;87747;-61
2022/10/07 09:36:17;;;;;;;0.60;0.60;;;22.20;72.10;22.80;101560.00;;;;4945025;28;87872;-60
2022/10/07 09:38:47;;;;;;;2.28;1.08;;;22.40;70.40;23.00;101569.00;;;;4950813;28;88053;-61
2022/10/07 09:41:31;;;;;;;1.40;1.25;;;22.60;68.10;23.10;101558.00;;;;4949604;28;90811;-60
2022/10/07 09:44:14;;;;;;;2.22;0.90;;;22.80;66.50;23.30;101555.00;;;;4950285;28;87925;-60
2022/10/07 09:46:53;;;;;;;1.08;0.73;;;23.00;66.30;23.40;101560.00;;;;4947937;28;92832;-60
2022/10/07 09:49:27;;;;;;;0.85;0.82;;;23.10;63.30;23.30;101554.00;;;;4965199;28;89089;-61
2022/10/07 09:52:01;;;;;;;3.47;1.17;;;23.10;63.00;23.40;101556.00;;;;4955151;28;89211;-61
2022/10/07 09:54:29;;;;;;;3.08;1.10;;;23.10;61.20;23.40;101552.00;;;;4945531;28;88007;-60
2022/10/07 09:56:58;;;;;;;1.95;0.85;;;23.10;61.40;23.40;101556.00;;;;4945896;28;88135;-61
2022/10/07 09:59:34;;;;;;;1.42;0.88;;;23.10;60.40;23.30;101550.00;;;;4951477;28;88062;-61
2022/10/07 10:02:12;;;;;;;1.25;0.82;;;23.10;59.90;23.30;101553.00;;;;4952098;28;95963;-61
2022/10/07 10:04:51;;;;;;;2.22;0.60;;;23.10;60.20;23.50;101549.00;;;;4950382;28;88740;-60
2022/10/07 10:07:28;;;;;;;0.82;0.57;;;23.20;59.30;23.60;101539.00;;;;4953349;28;87022;-61
2022/10/07 10:09:59;;;;;;;0.93;0.60;;;23.30;59.10;23.80;101535.00;;;;4946127;28;99629;-60
2022/10/07 10:12:25;;;;;;;3.28;1.25;;;23.40;59.10;23.90;101531.00;;;;4955191;28;98650;-61
2022/10/07 10:14:54;;;;;;;2.30;0.40;;;23.50;58.10;24.10;101537.00;;;;4954564;28;89219;-61
2022/10/07 10:17:35;;;;;;;1.05;0.88;;;23.70;58.50;24.20;101528.00;;;;4951887;28;101972;-61
2022/10/07 10:20:22;;;;;;;0.85;0.70;;;23.80;58.40;24.40;101518.00;;;;4949476;28;106792;-60
2022/10/07 10:22:48;;;;;;;0.98;0.47;;;24.00;58.70;24.70;101520.00;;;;4950373;28;101580;-61
2022/10/07 10:28:25;;;;;;;0.80;0.70;;;24.50;58.40;25.30;101515.00;;;;4960595;28;87860;-59
2022/10/07 10:31:07;;;;;;;1.35;0.95;;;24.80;58.00;25.50;101515.00;;;;4961811;28;87878;-61
2022/10/07 10:33:50;;;;;;;2.03;1.10;;;25.00;57.30;25.70;101503.00;;;;4962144;28;112439;-60
2022/10/07 10:36:20;;;;;;;0.60;0.60;;;25.20;56.00;25.60;101506.00;;;;4967169;28;88055;-60
2022/10/07 10:39:04;;;;;;;0.30;0.30;;;25.20;55.20;25.60;101504.00;;;;4950016;28;96408;-61
2022/10/07 10:41:51;;;;;;;1.33;1.00;;;25.20;55.60;25.70;101498.00;;;;4951339;28;89037;-60
2022/10/07 10:44:49;;;;;;;0.75;0.68;;;25.40;55.10;25.60;101488.00;;;;4943895;28;102475;-59
2022/10/07 10:47:22;;;;;;;2.00;0.80;;;25.30;54.00;25.50;101481.00;;;;4947555;28;88049;-59
2022/10/07 10:50:09;;;;;;;1.00;0.70;;;25.20;53.80;25.60;101488.00;;;;4952021;28;88105;-60
2022/10/07 10:52:44;;;;;;;0.70;0.70;;;25.10;54.50;25.60;101484.00;;;;4942072;28;94647;-60
2022/10/07 10:56:07;;;;;;;1.77;0.70;;;25.20;53.60;25.60;101474.00;;;;4946478;28;88718;-60
2022/10/07 10:59:00;;;;;;;2.10;1.20;;;25.20;53.10;25.50;101467.00;;;;4954623;28;88444;-59
2022/10/07 11:01:41;;;;;;;0.88;0.70;;;25.10;52.40;25.20;101458.00;;;;4951170;28;87133;-59
2022/10/07 11:04:21;;;;;;;1.25;1.00;;;24.90;53.10;25.40;101449.00;;;;4960374;28;97686;-59
2022/10/07 11:06:54;;;;;;;2.10;0.88;;;25.00;53.50;25.60;101452.00;;;;4943306;28;117437;-59
2022/10/07 11:09:38;;;;;;;0.65;0.65;;;25.10;54.00;26.00;101449.00;;;;4952183;28;88646;-59
2022/10/07 11:12:18;;;;;;;6.88;1.33;;;25.40;54.00;26.20;101444.00;;;;4948718;28;87955;-59
2022/10/07 11:14:55;;;;;;;1.52;1.00;;;25.60;52.90;26.20;101433.00;;;;4965202;28;87784;-59
2022/10/07 11:17:35;;;;;;;3.55;0.77;;;25.70;51.60;26.10;101439.00;;;;4948201;28;88663;-57
2022/10/07 11:20:17;;;;;;;1.27;0.80;;;25.70;51.70;26.20;101423.00;;;;4947019;28;88341;-59
2022/10/07 11:23:17;;;;;;;2.42;0.88;;;25.80;52.20;26.40;101433.00;;;;4946816;28;87971;-59
2022/10/07 11:25:51;;;;;;;1.15;0.88;;;25.90;52.10;26.50;101425.00;;;;4949061;28;87852;-59